createdAt,value
2022-12-17T00:02:08.094Z,-3.36
2022-12-17T00:04:59.290Z,-3.37
2022-12-17T00:07:48.419Z,-3.38
2022-12-17T00:10:36.798Z,-3.37
2022-12-17T00:13:24.864Z,-3.37
2022-12-17T00:16:14.902Z,-3.39
2022-12-17T00:19:03.411Z,-3.43
2022-12-17T00:21:53.837Z,-3.42
2022-12-17T00:24:45.233Z,-3.40
2022-12-17T00:27:33.483Z,-3.42
2022-12-17T00:30:21.979Z,-3.40
2022-12-17T00:33:10.372Z,-3.38
2022-12-17T00:35:58.858Z,-3.40
2022-12-17T00:38:48.693Z,-3.42
2022-12-17T00:41:36.778Z,-3.42
2022-12-17T00:44:24.763Z,-3.40
2022-12-17T00:47:15.304Z,-3.39
2022-12-17T00:50:04.466Z,-3.38
2022-12-17T00:52:52.662Z,-3.34
2022-12-17T00:55:40.409Z,-3.32
2022-12-17T00:58:29.494Z,-3.30
2022-12-17T01:01:19.367Z,-3.32
2022-12-17T01:04:07.255Z,-3.34
2022-12-17T01:06:55.665Z,-3.33
2022-12-17T01:09:47.954Z,-3.30
2022-12-17T01:12:38.607Z,-3.31
2022-12-17T01:15:27.153Z,-3.30
2022-12-17T01:18:15.768Z,-3.30
2022-12-17T01:21:04.362Z,-3.30
2022-12-17T01:23:52.805Z,-3.31
2022-12-17T01:26:40.822Z,-3.32
2022-12-17T01:29:31.407Z,-3.33
2022-12-17T01:32:21.590Z,-3.35
2022-12-17T01:35:09.829Z,-3.35
2022-12-17T01:37:58.523Z,-3.36
2022-12-17T01:40:56.771Z,-3.36
2022-12-17T01:43:59.213Z,-3.38
2022-12-17T01:47:11.344Z,-3.40
2022-12-17T01:50:06.659Z,-3.40
2022-12-17T01:52:59.807Z,-3.41
2022-12-17T01:55:48.456Z,-3.42
2022-12-17T01:58:59.386Z,-3.44
2022-12-17T02:01:53.813Z,-3.44
2022-12-17T02:04:43.360Z,-3.43
2022-12-17T02:08:07.468Z,-3.44
2022-12-17T02:11:30.728Z,-3.44
2022-12-17T02:14:46.487Z,-3.45
2022-12-17T02:17:43.509Z,-3.48
2022-12-17T02:21:09.345Z,-3.51
2022-12-17T02:24:42.757Z,-3.51
2022-12-17T02:27:36.381Z,-3.48
2022-12-17T02:30:29.363Z,-3.47
2022-12-17T02:33:32.472Z,-3.47
2022-12-17T02:36:27.162Z,-3.47
2022-12-17T02:39:17.225Z,-3.48
2022-12-17T02:42:12.952Z,-3.48
2022-12-17T02:45:05.160Z,-3.47
2022-12-17T02:47:53.968Z,-3.45
2022-12-17T02:50:42.705Z,-3.43
2022-12-17T02:53:32.243Z,-3.42
2022-12-17T02:56:20.344Z,-3.43
2022-12-17T02:59:10.732Z,-3.43
2022-12-17T03:02:02.948Z,-3.46
2022-12-17T03:04:54.312Z,-3.46
2022-12-17T03:07:42.467Z,-3.46
2022-12-17T03:10:30.349Z,-3.49
2022-12-17T03:13:18.400Z,-3.47
2022-12-17T03:16:06.514Z,-3.46
2022-12-17T03:18:54.464Z,-3.44
2022-12-17T03:21:50.049Z,-3.41
2022-12-17T03:24:37.741Z,-3.40
2022-12-17T03:27:27.904Z,-3.41
2022-12-17T03:30:15.899Z,-3.42
2022-12-17T03:33:03.798Z,-3.46
2022-12-17T03:35:54.089Z,-3.49
2022-12-17T03:38:44.996Z,-3.49
2022-12-17T03:41:35.892Z,-3.52
2022-12-17T03:44:23.702Z,-3.51
2022-12-17T03:47:12.034Z,-3.50
2022-12-17T03:49:59.967Z,-3.50
2022-12-17T03:52:52.743Z,-3.49
2022-12-17T03:55:43.959Z,-3.53
2022-12-17T03:58:32.202Z,-3.57
2022-12-17T04:01:23.681Z,-3.60
2022-12-17T04:04:14.575Z,-3.61
2022-12-17T04:07:02.889Z,-3.62
2022-12-17T04:09:50.727Z,-3.67
2022-12-17T04:12:39.044Z,-3.70
2022-12-17T04:15:27.958Z,-3.67
2022-12-17T04:18:16.270Z,-3.64
2022-12-17T04:21:07.238Z,-3.63
2022-12-17T04:23:55.910Z,-3.62
2022-12-17T04:26:43.663Z,-3.62
2022-12-17T04:29:31.255Z,-3.60
2022-12-17T04:32:18.930Z,-3.60
2022-12-17T04:35:06.357Z,-3.59
2022-12-17T04:37:56.660Z,-3.61
2022-12-17T04:40:44.547Z,-3.60
2022-12-17T04:43:32.662Z,-3.57
2022-12-17T04:46:37.293Z,-3.54
2022-12-17T04:49:25.552Z,-3.53
2022-12-17T04:52:13.604Z,-3.54
2022-12-17T04:55:01.790Z,-3.55
2022-12-17T04:57:50.026Z,-3.60
2022-12-17T05:00:38.589Z,-3.62
2022-12-17T05:03:31.693Z,-3.60
2022-12-17T05:06:20.765Z,-3.60
2022-12-17T05:09:08.504Z,-3.62
2022-12-17T05:11:56.493Z,-3.63
2022-12-17T05:14:44.787Z,-3.61
2022-12-17T05:17:32.814Z,-3.60
2022-12-17T05:20:22.108Z,-3.59
2022-12-17T05:23:09.627Z,-3.60
2022-12-17T05:25:57.054Z,-3.59
2022-12-17T05:28:44.717Z,-3.60
2022-12-17T05:31:32.443Z,-3.64
2022-12-17T05:34:20.042Z,-3.68
2022-12-17T05:37:07.774Z,-3.69
2022-12-17T05:39:55.258Z,-3.67
2022-12-17T05:42:42.870Z,-3.65
2022-12-17T05:45:30.647Z,-3.66
2022-12-17T05:48:18.730Z,-3.67
2022-12-17T05:51:10.130Z,-3.68
2022-12-17T05:53:58.300Z,-3.70
2022-12-17T05:56:46.165Z,-3.68
2022-12-17T05:59:34.099Z,-3.67
2022-12-17T06:02:22.422Z,-3.66
2022-12-17T06:05:12.796Z,-3.63
2022-12-17T06:08:02.351Z,-3.61
2022-12-17T06:10:50.613Z,-3.60
2022-12-17T06:13:38.813Z,-3.62
2022-12-17T06:16:29.478Z,-3.65
2022-12-17T06:19:34.598Z,-3.67
2022-12-17T06:22:22.192Z,-3.70
2022-12-17T06:25:10.343Z,-3.70
2022-12-17T06:27:58.145Z,-3.70
2022-12-17T06:30:47.331Z,-3.70
2022-12-17T06:33:39.151Z,-3.68
2022-12-17T06:36:27.749Z,-3.69
2022-12-17T06:39:16.018Z,-3.68
2022-12-17T06:42:04.610Z,-3.66
2022-12-17T06:44:54.202Z,-3.67
2022-12-17T06:47:42.159Z,-3.69
2022-12-17T06:50:36.776Z,-3.72
2022-12-17T06:53:26.728Z,-3.72
2022-12-17T06:56:18.984Z,-3.75
2022-12-17T06:59:07.379Z,-3.78
2022-12-17T07:01:55.605Z,-3.76
2022-12-17T07:04:43.857Z,-3.75
2022-12-17T07:07:31.748Z,-3.77
2022-12-17T07:10:19.804Z,-3.80
2022-12-17T07:13:07.360Z,-3.86
2022-12-17T07:15:55.353Z,-3.91
2022-12-17T07:18:43.524Z,-3.93
2022-12-17T07:21:31.241Z,-3.95
2022-12-17T07:24:22.539Z,-3.99
2022-12-17T07:27:10.523Z,-4.02
2022-12-17T07:29:58.314Z,-4.00
2022-12-17T07:32:45.984Z,-3.95
2022-12-17T07:35:34.022Z,-3.92
2022-12-17T07:38:23.787Z,-3.88
2022-12-17T07:41:11.872Z,-3.86
2022-12-17T07:44:02.015Z,-3.85
2022-12-17T07:46:50.611Z,-3.83
2022-12-17T07:49:37.872Z,-3.81
2022-12-17T07:52:25.509Z,-3.78
2022-12-17T07:55:16.786Z,-3.75
2022-12-17T07:58:05.585Z,-3.75
2022-12-17T08:00:53.177Z,-3.73
2022-12-17T08:03:41.650Z,-3.74
2022-12-17T08:06:33.812Z,-3.76
2022-12-17T08:09:21.974Z,-3.76
2022-12-17T08:12:10.065Z,-3.76
2022-12-17T08:14:57.576Z,-3.74
2022-12-17T08:17:55.973Z,-3.67
2022-12-17T08:20:43.975Z,-3.60
2022-12-17T08:23:31.878Z,-3.52
2022-12-17T08:26:19.995Z,-3.45
2022-12-17T08:29:09.907Z,-3.38
2022-12-17T08:31:57.919Z,-3.30
2022-12-17T08:34:46.793Z,-3.23
2022-12-17T08:37:34.255Z,-3.19
2022-12-17T08:40:22.094Z,-3.22
2022-12-17T08:43:16.555Z,-3.26
2022-12-17T08:46:09.623Z,-3.30
2022-12-17T08:49:08.326Z,-3.31
2022-12-17T08:51:55.744Z,-3.29
2022-12-17T08:54:43.345Z,-3.30
2022-12-17T08:57:32.150Z,-3.29
2022-12-17T09:00:20.527Z,-3.34
2022-12-17T09:03:08.393Z,-3.34
2022-12-17T09:05:56.729Z,-3.28
2022-12-17T09:08:47.310Z,-3.23
2022-12-17T09:11:38.282Z,-3.15
2022-12-17T09:14:29.425Z,-3.10
2022-12-17T09:17:17.539Z,-2.98
2022-12-17T09:20:12.990Z,-2.94
2022-12-17T09:23:01.259Z,-2.99
2022-12-17T09:25:53.739Z,-2.97
2022-12-17T09:28:45.930Z,-2.93
2022-12-17T09:31:37.251Z,-2.89
2022-12-17T09:34:25.401Z,-2.85
2022-12-17T09:37:13.077Z,-2.83
2022-12-17T09:40:01.074Z,-2.79
2022-12-17T09:43:17.067Z,-2.76
2022-12-17T09:46:28.824Z,-2.82
2022-12-17T09:49:37.558Z,-2.88
2022-12-17T09:52:50.102Z,-2.96
2022-12-17T09:56:05.853Z,-2.94
2022-12-17T09:58:59.400Z,-2.86
2022-12-17T10:01:56.142Z,-2.84
2022-12-17T10:05:04.543Z,-2.90
2022-12-17T10:07:57.407Z,-2.92
2022-12-17T10:10:51.380Z,-2.94
2022-12-17T10:13:42.135Z,-2.92
2022-12-17T10:17:08.443Z,-2.89
2022-12-17T10:20:01.425Z,-2.93
2022-12-17T10:23:00.626Z,-2.97
2022-12-17T10:25:48.888Z,-3.02
2022-12-17T10:28:44.416Z,-2.98
2022-12-17T10:31:41.067Z,-2.93
2022-12-17T10:34:39.578Z,-2.89
2022-12-17T10:37:38.718Z,-2.84
2022-12-17T10:40:44.738Z,-2.74
2022-12-17T10:43:51.886Z,-2.70
2022-12-17T10:46:47.046Z,-2.68
2022-12-17T10:49:40.692Z,-2.63
2022-12-17T10:52:46.467Z,-2.58
2022-12-17T10:55:44.184Z,-2.51
2022-12-17T10:58:40.259Z,-2.46
2022-12-17T11:01:39.647Z,-2.41
2022-12-17T11:05:12.291Z,-2.37
2022-12-17T11:08:02.795Z,-2.30
2022-12-17T11:10:59.404Z,-2.25
2022-12-17T11:13:52.508Z,-2.23
2022-12-17T11:17:12.747Z,-2.17
2022-12-17T11:20:36.981Z,-2.14
2022-12-17T11:23:28.535Z,-2.14
2022-12-17T11:26:33.038Z,-2.11
2022-12-17T11:29:20.791Z,-2.08
2022-12-17T11:32:29.135Z,-2.13
2022-12-17T11:35:42.284Z,-2.17
2022-12-17T11:38:53.827Z,-2.14
2022-12-17T11:42:13.085Z,-2.11
2022-12-17T11:45:20.785Z,-2.10
2022-12-17T11:48:31.198Z,-2.08
2022-12-17T11:51:36.979Z,-2.03
2022-12-17T11:54:38.746Z,-1.98
2022-12-17T11:58:08.049Z,-1.95
2022-12-17T12:01:39.696Z,-1.96
2022-12-17T12:04:43.639Z,-1.94
2022-12-17T12:07:47.215Z,-1.94
2022-12-17T12:10:52.510Z,-1.90
2022-12-17T12:14:12.352Z,-1.80
2022-12-17T12:17:40.897Z,-1.70
2022-12-17T12:21:04.763Z,-1.69
2022-12-17T12:24:11.014Z,-1.66
2022-12-17T12:27:25.365Z,-1.67
2022-12-17T12:30:42.882Z,-1.68
2022-12-17T12:33:42.492Z,-1.66
2022-12-17T12:36:35.835Z,-1.65
2022-12-17T12:39:29.251Z,-1.61
2022-12-17T12:42:45.170Z,-1.62
2022-12-17T12:46:11.789Z,-1.65
2022-12-17T12:49:44.042Z,-1.68
2022-12-17T12:52:39.840Z,-1.70
2022-12-17T12:55:30.695Z,-1.65
2022-12-17T12:58:19.499Z,-1.64
2022-12-17T13:01:07.047Z,-1.62
2022-12-17T13:04:03.660Z,-1.62
2022-12-17T13:06:49.319Z,-1.64
2022-12-17T13:09:19.208Z,-1.66
2022-12-17T13:12:02.070Z,-1.65
2022-12-17T13:14:47.657Z,-1.63
2022-12-17T13:17:17.051Z,-1.59
2022-12-17T13:20:02.177Z,-1.55
2022-12-17T13:22:33.963Z,-1.51
2022-12-17T13:25:23.991Z,-1.49
2022-12-17T13:27:54.651Z,-1.50
2022-12-17T13:30:39.205Z,-1.49
2022-12-17T13:33:27.102Z,-1.47
2022-12-17T13:36:52.614Z,-1.48
2022-12-17T13:39:28.923Z,-1.51
2022-12-17T13:42:00.659Z,-1.52
2022-12-17T13:45:02.940Z,-1.49
2022-12-17T13:47:38.916Z,-1.48
2022-12-17T13:50:35.499Z,-1.47
2022-12-17T13:53:15.545Z,-1.47
2022-12-17T13:55:53.278Z,-1.48
2022-12-17T13:58:35.975Z,-1.49
2022-12-17T14:01:09.020Z,-1.53
2022-12-17T14:04:05.083Z,-1.56
2022-12-17T14:06:38.395Z,-1.63
2022-12-17T14:09:18.436Z,-1.67
2022-12-17T14:12:08.969Z,-1.69
2022-12-17T14:14:41.361Z,-1.76
2022-12-17T14:17:23.997Z,-1.80
2022-12-17T14:20:07.677Z,-1.83
2022-12-17T14:22:49.441Z,-1.84
2022-12-17T14:25:24.640Z,-1.84
2022-12-17T14:27:57.532Z,-1.85
2022-12-17T14:31:02.686Z,-1.85
2022-12-17T14:33:37.367Z,-1.91
2022-12-17T14:36:16.754Z,-1.94
2022-12-17T14:39:03.488Z,-1.98
2022-12-17T14:42:00.086Z,-2.03
2022-12-17T14:44:31.595Z,-2.07
2022-12-17T14:47:40.794Z,-2.09
2022-12-17T14:50:26.108Z,-2.10
2022-12-17T14:53:23.566Z,-2.13
2022-12-17T14:56:02.227Z,-2.18
2022-12-17T14:58:31.752Z,-2.24
2022-12-17T15:01:09.363Z,-2.26
2022-12-17T15:03:47.055Z,-2.29
2022-12-17T15:06:20.671Z,-2.34
2022-12-17T15:08:53.374Z,-2.36
2022-12-17T15:11:23.967Z,-2.39
2022-12-17T15:13:56.673Z,-2.42
2022-12-17T15:16:27.231Z,-2.48
2022-12-17T15:18:56.767Z,-2.50
2022-12-17T15:21:27.176Z,-2.55
2022-12-17T15:23:56.912Z,-2.58
2022-12-17T15:26:27.014Z,-2.58
2022-12-17T15:28:57.284Z,-2.60
2022-12-17T15:31:31.938Z,-2.61
2022-12-17T15:34:05.131Z,-2.65
2022-12-17T15:36:34.931Z,-2.65
2022-12-17T15:39:06.461Z,-2.69
2022-12-17T15:41:54.719Z,-2.77
2022-12-17T15:44:28.163Z,-2.86
2022-12-17T15:46:57.583Z,-2.93
2022-12-17T15:49:30.153Z,-2.97
2022-12-17T15:51:59.592Z,-3.00
2022-12-17T15:54:29.585Z,-3.03
2022-12-17T15:57:19.024Z,-3.08
2022-12-17T16:00:09.257Z,-3.15
2022-12-17T16:02:47.288Z,-3.17
2022-12-17T16:05:18.209Z,-3.16
2022-12-17T16:07:52.345Z,-3.14
2022-12-17T16:10:22.024Z,-3.11
2022-12-17T16:12:57.321Z,-3.10
2022-12-17T16:15:31.988Z,-3.12
2022-12-17T16:18:02.000Z,-3.16
2022-12-17T16:20:32.126Z,-3.20
2022-12-17T16:23:01.858Z,-3.24
2022-12-17T16:25:33.902Z,-3.29
2022-12-17T16:28:03.536Z,-3.34
2022-12-17T16:30:33.190Z,-3.40
2022-12-17T16:33:02.790Z,-3.40
2022-12-17T16:35:32.418Z,-3.34
2022-12-17T16:38:02.919Z,-3.32
2022-12-17T16:40:32.608Z,-3.31
2022-12-17T16:43:02.393Z,-3.29
2022-12-17T16:45:32.447Z,-3.27
2022-12-17T16:48:14.852Z,-3.24
2022-12-17T16:50:52.074Z,-3.22
2022-12-17T16:53:21.902Z,-3.19
2022-12-17T16:55:53.184Z,-3.14
2022-12-17T16:58:38.489Z,-3.13
2022-12-17T17:01:36.021Z,-3.13
2022-12-17T17:04:09.131Z,-3.14
2022-12-17T17:06:57.119Z,-3.12
2022-12-17T17:09:26.640Z,-3.11
2022-12-17T17:11:58.718Z,-3.09
2022-12-17T17:14:28.035Z,-3.10
2022-12-17T17:16:57.290Z,-3.10
2022-12-17T17:19:26.652Z,-3.09
2022-12-17T17:21:59.306Z,-3.07
2022-12-17T17:24:31.514Z,-3.03
2022-12-17T17:27:09.791Z,-3.01
2022-12-17T17:29:44.126Z,-2.99
2022-12-17T17:32:14.237Z,-2.98
2022-12-17T17:34:47.118Z,-2.98
2022-12-17T17:37:19.062Z,-2.96
2022-12-17T17:39:48.389Z,-2.96
2022-12-17T17:42:18.251Z,-2.93
2022-12-17T17:44:49.372Z,-2.89
2022-12-17T17:47:23.192Z,-2.86
2022-12-17T17:49:58.521Z,-2.85
2022-12-17T17:52:44.276Z,-2.83
2022-12-17T17:55:18.659Z,-2.81
2022-12-17T18:00:34.476Z,-2.80
2022-12-17T18:03:13.504Z,-2.78
2022-12-17T18:05:49.704Z,-2.76
2022-12-17T18:08:23.006Z,-2.74
2022-12-17T18:11:39.101Z,-2.72
2022-12-17T18:14:23.692Z,-2.70
2022-12-17T18:17:02.398Z,-2.70
2022-12-17T18:19:36.559Z,-2.68
2022-12-17T18:22:12.866Z,-2.68
2022-12-17T18:24:47.167Z,-2.69
2022-12-17T18:27:16.826Z,-2.70
2022-12-17T18:29:49.011Z,-2.69
2022-12-17T18:32:27.283Z,-2.66
2022-12-17T18:34:57.157Z,-2.65
2022-12-17T18:37:30.191Z,-2.63
2022-12-17T18:40:00.110Z,-2.64
2022-12-17T18:42:59.530Z,-2.68
2022-12-17T18:45:31.404Z,-2.72
2022-12-17T18:48:08.546Z,-2.73
2022-12-17T18:50:39.278Z,-2.73
2022-12-17T18:53:10.199Z,-2.76
2022-12-17T18:55:44.553Z,-2.78
2022-12-17T18:58:25.038Z,-2.80
2022-12-17T19:00:56.779Z,-2.80
2022-12-17T19:03:33.543Z,-2.81
2022-12-17T19:06:14.608Z,-2.82
2022-12-17T19:08:49.287Z,-2.83
2022-12-17T19:11:40.458Z,-2.81
2022-12-17T19:17:10.574Z,-2.85
2022-12-17T19:19:42.979Z,-2.82
2022-12-17T19:22:25.651Z,-2.78
2022-12-17T19:25:09.389Z,-2.75
2022-12-17T19:27:47.053Z,-2.76
2022-12-17T19:30:17.046Z,-2.77
2022-12-17T19:32:48.362Z,-2.77
2022-12-17T19:35:20.420Z,-2.75
2022-12-17T19:37:58.437Z,-2.73
2022-12-17T19:40:29.448Z,-2.74
2022-12-17T19:42:59.928Z,-2.75
2022-12-17T19:45:37.008Z,-2.72
2022-12-17T19:48:18.793Z,-2.73
2022-12-17T19:50:58.740Z,-2.76
2022-12-17T19:53:32.780Z,-2.79
2022-12-17T19:56:14.503Z,-2.77
2022-12-17T19:58:53.502Z,-2.78
2022-12-17T20:01:34.767Z,-2.79
2022-12-17T20:04:12.036Z,-2.78
2022-12-17T20:06:48.177Z,-2.81
2022-12-17T20:09:19.983Z,-2.82
2022-12-17T20:11:49.759Z,-2.81
2022-12-17T20:14:26.596Z,-2.82
2022-12-17T20:17:00.464Z,-2.82
2022-12-17T20:19:43.008Z,-2.80
2022-12-17T20:22:23.093Z,-2.78
2022-12-17T20:24:55.200Z,-2.76
2022-12-17T20:27:25.016Z,-2.75
2022-12-17T20:29:54.780Z,-2.74
2022-12-17T20:32:29.542Z,-2.74
2022-12-17T20:35:01.179Z,-2.74
2022-12-17T20:37:34.293Z,-2.73
2022-12-17T20:40:04.503Z,-2.74
2022-12-17T20:42:34.349Z,-2.74
2022-12-17T20:45:04.607Z,-2.73
2022-12-17T20:47:35.785Z,-2.69
2022-12-17T20:50:06.067Z,-2.63
2022-12-17T20:52:35.690Z,-2.61
2022-12-17T20:55:06.225Z,-2.60
2022-12-17T20:57:43.259Z,-2.61
2022-12-17T21:00:39.554Z,-2.65
2022-12-17T21:03:43.784Z,-2.69
2022-12-17T21:06:45.935Z,-2.72
2022-12-17T21:09:20.473Z,-2.73
2022-12-17T21:11:55.479Z,-2.72
2022-12-17T21:14:35.145Z,-2.71
2022-12-17T21:17:07.668Z,-2.70
2022-12-17T21:19:37.535Z,-2.70
2022-12-17T21:22:09.941Z,-2.70
2022-12-17T21:24:42.774Z,-2.70
2022-12-17T21:27:19.811Z,-2.72
2022-12-17T21:29:53.419Z,-2.71
2022-12-17T21:32:33.372Z,-2.68
2022-12-17T21:35:15.197Z,-2.70
2022-12-17T21:37:51.891Z,-2.71
2022-12-17T21:40:21.591Z,-2.70
2022-12-17T21:43:31.883Z,-2.67
2022-12-17T21:46:17.592Z,-2.65
2022-12-17T21:48:59.160Z,-2.62
2022-12-17T21:51:46.274Z,-2.62
2022-12-17T21:54:19.929Z,-2.62
2022-12-17T21:56:50.067Z,-2.59
2022-12-17T21:59:22.871Z,-2.56
2022-12-17T22:02:11.248Z,-2.54
2022-12-17T22:04:46.833Z,-2.55
2022-12-17T22:07:20.217Z,-2.54
2022-12-17T22:10:25.068Z,-2.50
2022-12-17T22:13:21.656Z,-2.46
2022-12-17T22:15:57.518Z,-2.47
2022-12-17T22:18:27.691Z,-2.49
2022-12-17T22:21:03.023Z,-2.49
2022-12-17T22:23:49.485Z,-2.48
2022-12-17T22:26:28.857Z,-2.43
2022-12-17T22:29:07.494Z,-2.40
2022-12-17T22:35:23.162Z,-2.38
2022-12-17T22:40:33.326Z,-2.42
2022-12-17T22:44:35.211Z,-2.45
2022-12-17T22:44:42.468Z,-2.41
2022-12-17T22:46:38.726Z,-2.35
2022-12-17T22:49:15.097Z,-2.38
2022-12-17T22:55:11.111Z,-2.44
2022-12-17T22:57:45.115Z,-2.49
2022-12-17T23:00:32.048Z,-2.52
2022-12-17T23:03:03.084Z,-2.52
2022-12-17T23:05:35.951Z,-2.51
2022-12-17T23:08:15.855Z,-2.51
2022-12-17T23:11:01.403Z,-2.52
2022-12-17T23:13:48.374Z,-2.56
2022-12-17T23:16:25.053Z,-2.59
2022-12-17T23:19:05.491Z,-2.62
2022-12-17T23:21:35.484Z,-2.65
2022-12-17T23:24:10.071Z,-2.66
2022-12-17T23:26:41.560Z,-2.67
2022-12-17T23:29:20.626Z,-2.70
2022-12-17T23:32:04.238Z,-2.76
2022-12-17T23:34:33.804Z,-2.82
2022-12-17T23:37:10.292Z,-2.86
2022-12-17T23:39:41.542Z,-2.88
2022-12-17T23:42:13.745Z,-2.92
2022-12-17T23:44:43.436Z,-2.95
2022-12-17T23:47:15.394Z,-2.98
2022-12-17T23:49:56.580Z,-2.98
2022-12-17T23:52:27.752Z,-2.97
2022-12-17T23:55:01.085Z,-3.00
2022-12-17T23:57:39.018Z,-3.03
